Time;durP1;ratioP1;P1;durP2;ratioP2;P2;SDS_P1;SDS_P2;PMS_P1;PMS_P2;Temp;Humidity;BMP_temperature;BMP_pressure;BME280_temperature;BME280_humidity;BME280_pressure;Samples;Min_cycle;Max_cycle;Signal;HPM_P1;HPM_P2
2022/05/18 00:00:37;;;;;;;4.10;2.38;;;;;;;23.95;38.20;96984.72;5015652;28;20026;-32
2022/05/18 00:03:08;;;;;;;3.38;1.63;;;;;;;23.86;38.26;96984.97;5015656;28;20077;-33
2022/05/18 00:05:37;;;;;;;6.78;1.77;;;;;;;23.95;38.04;96981.94;5015608;28;20037;-33
2022/05/18 00:08:03;;;;;;;3.17;1.85;;;;;;;23.87;38.04;96989.97;5015635;28;20097;-32
2022/05/18 00:10:28;;;;;;;3.85;1.98;;;;;;;23.87;38.16;96984.44;5015439;28;20053;-33
2022/05/18 00:12:54;;;;;;;4.80;2.10;;;;;;;23.88;38.02;96991.50;5015595;28;20531;-33
2022/05/18 00:15:22;;;;;;;2.85;1.52;;;;;;;24.03;37.76;96984.97;5015632;28;20091;-32
2022/05/18 00:17:48;;;;;;;2.92;1.77;;;;;;;23.95;38.18;96985.47;5015313;28;20029;-33
2022/05/18 00:20:14;;;;;;;4.85;1.75;;;;;;;24.02;37.53;96986.22;5015503;28;20116;-32
2022/05/18 00:22:44;;;;;;;5.97;2.08;;;;;;;23.87;37.97;96989.22;5015245;28;20071;-33
2022/05/18 00:25:11;;;;;;;4.78;2.00;;;;;;;23.85;37.69;96989.75;5015338;28;20045;-32
2022/05/18 00:27:36;;;;;;;2.97;2.08;;;;;;;23.87;38.06;96987.22;5015196;28;20033;-34
2022/05/18 00:30:02;;;;;;;3.20;1.90;;;;;;;23.98;37.85;96983.72;5015248;28;20029;-33
2022/05/18 00:32:28;;;;;;;4.55;1.90;;;;;;;23.90;37.60;96985.44;5015234;28;20045;-32
2022/05/18 00:34:53;;;;;;;4.40;1.90;;;;;;;23.82;37.78;96985.19;5015406;28;20022;-33
2022/05/18 00:37:18;;;;;;;3.08;1.80;;;;;;;23.83;38.06;96988.72;5015042;28;20411;-33
2022/05/18 00:39:44;;;;;;;5.43;1.92;;;;;;;23.97;37.75;96976.66;5015247;28;20432;-32
2022/05/18 00:42:20;;;;;;;2.50;2.05;;;;;;;23.92;37.53;96982.94;5014853;28;20030;-34
2022/05/18 00:44:46;;;;;;;3.78;1.90;;;;;;;23.96;37.58;96983.47;5014884;28;20029;-33
2022/05/18 00:47:12;;;;;;;2.58;1.90;;;;;;;24.02;37.60;96989.00;5014931;28;20018;-33
2022/05/18 00:49:38;;;;;;;4.05;2.05;;;;;;;23.87;37.73;96984.44;5014836;28;20034;-32
2022/05/18 00:52:04;;;;;;;2.90;1.70;;;;;;;23.92;37.87;96985.72;5014790;28;20030;-32
2022/05/18 00:54:31;;;;;;;2.75;1.77;;;;;;;23.92;37.73;96985.72;5014985;28;20026;-32
2022/05/18 00:57:07;;;;;;;2.85;1.80;;;;;;;23.92;37.49;96980.16;5013998;28;20084;-32
2022/05/18 00:59:51;;;;;;;7.35;2.28;;;;;;;23.92;37.60;96985.72;5014661;28;20026;-32
2022/05/18 01:02:19;;;;;;;6.30;1.95;;;;;;;23.89;37.72;96981.16;5014795;28;20025;-32
2022/05/18 01:04:49;;;;;;;4.82;1.95;;;;;;;23.96;37.48;96983.47;5014418;28;20034;-32
2022/05/18 01:07:24;;;;;;;4.35;2.05;;;;;;;23.93;37.36;96987.97;5014564;28;20028;-32
2022/05/18 01:09:50;;;;;;;3.35;2.08;;;;;;;23.99;37.25;96988.72;5014532;28;20547;-32
2022/05/18 01:12:18;;;;;;;4.72;2.13;;;;;;;23.89;37.67;96989.47;5014580;28;20111;-32
2022/05/18 01:14:53;;;;;;;3.65;2.13;;;;;;;23.92;37.18;96985.72;5014400;28;20373;-32
2022/05/18 01:17:26;;;;;;;4.05;1.95;;;;;;;23.98;37.15;96983.72;5014548;28;20058;-32
2022/05/18 01:19:55;;;;;;;4.22;2.05;;;;;;;24.00;37.21;96986.72;5014336;28;20050;-32
2022/05/18 01:22:30;;;;;;;4.88;1.90;;;;;;;23.92;37.40;96986.47;5014278;28;20029;-32
2022/05/18 01:25:32;;;;;;;2.85;1.65;;;;;;;24.00;37.14;96995.78;5014484;28;20095;-33
2022/05/18 01:27:59;;;;;;;4.63;1.92;;;;;;;23.96;37.46;96991.78;5014238;28;20030;-33
2022/05/18 01:30:26;;;;;;;4.75;2.22;;;;;;;23.93;37.43;96987.97;5014183;28;20032;-32
2022/05/18 01:32:54;;;;;;;4.63;1.85;;;;;;;23.90;37.10;96988.22;5014112;28;20116;-32
2022/05/18 01:35:23;;;;;;;4.75;2.13;;;;;;;23.93;37.16;96985.22;5014124;28;20068;-32
2022/05/18 01:37:49;;;;;;;3.95;1.73;;;;;;;24.01;36.90;96991.00;5014145;28;20033;-32
2022/05/18 01:40:35;;;;;;;2.40;1.95;;;;;;;24.02;37.12;96983.44;5013992;28;20037;-32
2022/05/18 01:43:22;;;;;;;7.53;2.15;;;;;;;23.90;36.84;96983.44;5014292;28;20084;-32
2022/05/18 01:45:53;;;;;;;5.72;1.95;;;;;;;23.88;36.76;96983.19;5013910;28;20029;-33
2022/05/18 01:48:21;;;;;;;2.95;1.90;;;;;;;23.84;37.26;96979.91;5013935;28;20057;-32
2022/05/18 01:50:47;;;;;;;4.85;1.95;;;;;;;23.91;36.65;96978.66;5013911;28;20441;-32
2022/05/18 01:53:13;;;;;;;4.47;1.85;;;;;;;23.90;36.76;96977.91;5014069;28;20029;-32
2022/05/18 01:55:38;;;;;;;2.90;1.90;;;;;;;23.96;36.58;96970.38;5013777;28;20034;-33
2022/05/18 01:58:05;;;;;;;3.53;1.92;;;;;;;23.91;36.96;96976.66;5013829;28;20040;-33
2022/05/18 02:00:32;;;;;;;4.55;2.10;;;;;;;23.94;36.41;96978.41;5013722;28;20530;-33
2022/05/18 02:02:58;;;;;;;5.13;1.85;;;;;;;23.85;36.82;96978.66;5013597;28;20373;-32
2022/05/18 02:05:24;;;;;;;5.55;2.17;;;;;;;23.90;37.27;96983.44;5013597;28;20511;-32
2022/05/18 02:07:49;;;;;;;4.35;2.10;;;;;;;23.92;37.05;96982.94;5013438;28;20074;-32
2022/05/18 02:10:15;;;;;;;4.43;2.22;;;;;;;23.89;36.84;96984.69;5013825;28;20527;-32
2022/05/18 02:12:40;;;;;;;3.85;2.10;;;;;;;23.84;36.92;96985.47;5013250;28;20060;-33
2022/05/18 02:15:06;;;;;;;6.43;2.17;;;;;;;23.91;36.80;96984.19;5013676;28;20404;-33
2022/05/18 02:17:32;;;;;;;5.10;2.10;;;;;;;23.83;36.73;96986.72;5013809;28;20025;-32
2022/05/18 02:19:59;;;;;;;4.13;2.20;;;;;;;23.84;36.99;96985.47;5013512;28;20108;-34
2022/05/18 02:22:25;;;;;;;4.78;2.08;;;;;;;23.87;37.14;96989.22;5013520;28;20049;-33
2022/05/18 02:24:51;;;;;;;3.88;2.08;;;;;;;23.86;36.70;96980.16;5013391;28;20030;-33
2022/05/18 02:27:17;;;;;;;2.22;1.80;;;;;;;23.88;36.74;96980.41;5013473;28;20376;-32
2022/05/18 02:29:43;;;;;;;3.80;2.53;;;;;;;23.90;36.85;96988.22;5013382;28;20032;-32
2022/05/18 02:32:09;;;;;;;3.63;2.17;;;;;;;23.86;36.91;96977.38;5013343;28;20022;-33
2022/05/18 02:34:35;;;;;;;3.95;2.30;;;;;;;23.90;36.87;96979.91;5013319;28;20464;-33
2022/05/18 02:37:01;;;;;;;3.70;1.92;;;;;;;23.83;37.06;96983.19;5013264;28;20044;-33
2022/05/18 02:39:26;;;;;;;4.97;2.00;;;;;;;23.87;37.10;96994.75;5013510;28;20109;-33
2022/05/18 02:41:52;;;;;;;3.95;1.75;;;;;;;23.86;36.77;96982.19;5013568;28;20033;-34
2022/05/18 02:44:19;;;;;;;4.60;2.10;;;;;;;23.88;36.91;96990.72;5013072;28;20534;-32
2022/05/18 02:46:44;;;;;;;5.72;2.50;;;;;;;23.92;36.95;96980.16;5013387;28;20066;-33
2022/05/18 02:49:10;;;;;;;3.78;2.00;;;;;;;23.85;37.22;96984.22;5013304;28;20064;-32
2022/05/18 02:51:39;;;;;;;4.60;2.10;;;;;;;23.81;37.33;96991.25;5013650;28;20026;-32
2022/05/18 02:56:53;;;;;;;4.38;2.10;;;;;;;23.73;37.05;96985.44;5013343;28;20101;-34
2022/05/18 02:59:20;;;;;;;3.03;1.90;;;;;;;23.70;37.77;96991.22;5013494;28;20083;-35
2022/05/18 03:01:45;;;;;;;3.83;1.90;;;;;;;23.71;37.41;96992.75;5013080;28;20021;-35
2022/05/18 03:04:11;;;;;;;3.58;2.08;;;;;;;23.77;37.15;96985.94;5012868;28;20535;-33
2022/05/18 03:06:37;;;;;;;3.97;2.10;;;;;;;23.78;36.88;96989.47;5013312;28;20072;-32
2022/05/18 03:09:03;;;;;;;5.40;2.50;;;;;;;23.73;37.08;96990.97;5013211;28;20034;-34
2022/05/18 03:11:28;;;;;;;3.90;2.28;;;;;;;23.70;37.11;96991.22;5012959;28;20057;-33
2022/05/18 03:13:54;;;;;;;3.70;2.20;;;;;;;23.59;37.19;96992.72;5012778;28;20408;-33
2022/05/18 03:16:19;;;;;;;3.55;2.00;;;;;;;23.66;37.20;96991.47;5013099;28;20076;-33
2022/05/18 03:18:45;;;;;;;4.63;1.95;;;;;;;23.71;37.01;96993.50;5013148;28;20032;-32
2022/05/18 03:23:55;;;;;;;4.07;2.25;;;;;;;23.64;37.46;96988.44;5016495;28;20080;-32
2022/05/18 03:26:22;;;;;;;5.95;2.05;;;;;;;23.65;37.47;96992.72;5016695;28;20026;-32
2022/05/18 03:28:50;;;;;;;5.72;2.15;;;;;;;23.59;37.22;96989.94;5016377;28;20105;-33
2022/05/18 03:31:16;;;;;;;4.47;2.20;;;;;;;23.67;37.50;96987.44;5016431;28;20045;-32
2022/05/18 03:33:42;;;;;;;4.75;1.95;;;;;;;23.59;37.33;96983.66;5048250;28;20022;-33
2022/05/18 03:36:09;;;;;;;6.13;2.30;;;;;;;23.61;37.59;96981.88;5016356;28;20030;-33
2022/05/18 03:38:35;;;;;;;4.38;2.08;;;;;;;23.64;37.43;96993.97;5016319;28;20025;-33
2022/05/18 03:41:00;;;;;;;4.10;2.80;;;;;;;23.62;37.62;96991.69;5016280;28;20022;-33
2022/05/18 03:43:26;;;;;;;7.18;3.55;;;;;;;23.65;37.58;96989.94;5016013;28;20447;-33
2022/05/18 03:45:51;;;;;;;7.13;4.18;;;;;;;23.64;37.50;96989.19;5016025;28;20025;-32
2022/05/18 03:48:18;;;;;;;7.63;3.95;;;;;;;23.67;37.59;96995.75;5016116;28;20416;-34
2022/05/18 03:50:46;;;;;;;6.20;3.38;;;;;;;23.65;37.64;97003.78;5016215;28;20067;-32
2022/05/18 03:53:12;;;;;;;6.00;3.30;;;;;;;23.68;37.45;96999.28;5015961;28;20464;-33
2022/05/18 03:55:40;;;;;;;4.57;2.90;;;;;;;23.60;37.54;96996.25;5047765;28;20041;-34
2022/05/18 03:58:06;;;;;;;5.93;3.28;;;;;;;23.56;37.89;96995.72;5015913;28;20026;-32
2022/05/18 04:00:32;;;;;;;6.82;3.10;;;;;;;23.54;37.93;96995.47;5015750;28;20387;-32
2022/05/18 04:02:58;;;;;;;6.93;3.40;;;;;;;23.60;37.74;96999.00;5015792;28;20053;-34
2022/05/18 04:05:24;;;;;;;4.95;3.30;;;;;;;23.60;37.76;97001.78;5015806;28;20033;-33
2022/05/18 04:07:49;;;;;;;8.63;3.72;;;;;;;23.65;37.79;97001.03;5015768;28;20029;-32
2022/05/18 04:10:16;;;;;;;5.75;3.58;;;;;;;23.54;38.09;97001.00;5015693;28;20029;-32
2022/05/18 04:12:43;;;;;;;5.57;3.10;;;;;;;23.55;38.10;97006.03;5015417;28;20057;-34
2022/05/18 04:15:10;;;;;;;6.95;3.40;;;;;;;23.52;38.32;97003.50;5015576;28;20014;-34
2022/05/18 04:17:36;;;;;;;6.15;3.28;;;;;;;23.55;38.26;97002.50;5015598;28;20424;-34
2022/05/18 04:20:05;;;;;;;6.20;3.20;;;;;;;23.53;38.56;97003.00;5015526;28;20064;-34
2022/05/18 04:22:32;;;;;;;7.07;2.83;;;;;;;23.51;38.72;97013.06;5015311;28;20033;-35
2022/05/18 04:25:01;;;;;;;6.72;3.03;;;;;;;23.52;38.44;97009.03;5015430;28;20053;-32
2022/05/18 04:27:28;;;;;;;7.60;3.42;;;;;;;23.52;38.61;97020.09;5015358;28;20052;-32
2022/05/18 04:29:54;;;;;;;5.07;2.83;;;;;;;23.53;38.71;97011.31;5014939;28;20022;-32
2022/05/18 04:32:20;;;;;;;7.88;3.40;;;;;;;23.52;38.53;97011.81;5014371;28;20431;-33
2022/05/18 04:34:48;;;;;;;6.93;2.90;;;;;;;23.51;38.82;97022.13;5015197;28;20025;-33
2022/05/18 04:37:14;;;;;;;7.10;3.05;;;;;;;23.56;38.65;97020.63;5015275;28;20472;-35
2022/05/18 04:39:40;;;;;;;6.28;2.97;;;;;;;23.50;39.16;97020.59;5015064;28;20030;-33
2022/05/18 04:42:05;;;;;;;3.92;2.50;;;;;;;23.51;39.10;97021.38;5015120;28;20025;-33
2022/05/18 04:44:32;;;;;;;5.55;3.00;;;;;;;23.53;39.09;97024.41;5015091;28;20029;-32
2022/05/18 04:46:58;;;;;;;5.43;2.88;;;;;;;23.52;39.19;97031.19;5015064;28;20040;-32
2022/05/18 04:49:25;;;;;;;7.50;2.90;;;;;;;23.46;39.52;97031.16;5014699;28;20021;-32
2022/05/18 04:51:51;;;;;;;4.95;2.70;;;;;;;23.45;39.22;97035.16;5014937;28;20444;-32
2022/05/18 04:54:16;;;;;;;6.55;3.28;;;;;;;23.47;39.73;97040.22;5014590;28;20053;-33
2022/05/18 04:56:42;;;;;;;5.78;2.88;;;;;;;23.55;39.47;97039.25;5014778;28;20034;-32
2022/05/18 04:59:07;;;;;;;5.82;3.08;;;;;;;23.47;39.68;97045.75;5014689;28;20021;-33
2022/05/18 05:01:34;;;;;;;5.28;2.67;;;;;;;23.48;39.49;97045.25;5014705;28;20030;-32
2022/05/18 05:04:00;;;;;;;6.07;3.25;;;;;;;23.54;39.57;97051.59;5014423;28;20122;-33
2022/05/18 05:06:26;;;;;;;5.55;3.05;;;;;;;23.50;39.72;97055.81;5014796;28;20032;-33
2022/05/18 05:08:52;;;;;;;5.68;3.08;;;;;;;23.51;39.70;97063.66;5014787;28;20026;-32
2022/05/18 05:11:18;;;;;;;6.00;2.90;;;;;;;23.55;39.68;97057.88;5014544;28;20025;-33
2022/05/18 05:13:44;;;;;;;4.85;2.72;;;;;;;23.50;39.84;97056.59;5014202;28;20048;-33
2022/05/18 05:16:11;;;;;;;4.13;2.80;;;;;;;23.49;39.83;97054.31;5014373;28;20470;-32
2022/05/18 05:18:38;;;;;;;3.95;2.67;;;;;;;23.54;39.44;97059.13;5014373;28;20036;-32
2022/05/18 05:21:04;;;;;;;5.78;2.70;;;;;;;23.46;39.91;97055.31;5014374;28;20045;-33
2022/05/18 05:23:29;;;;;;;4.50;2.83;;;;;;;23.46;39.72;97058.06;5014352;28;20439;-33
2022/05/18 05:25:56;;;;;;;4.75;2.50;;;;;;;23.47;40.18;97062.34;5014061;28;20029;-34
2022/05/18 05:28:21;;;;;;;6.38;2.63;;;;;;;23.51;40.11;97065.66;5013923;28;20021;-35
2022/05/18 05:30:47;;;;;;;5.65;3.08;;;;;;;23.48;39.93;97072.19;5011968;28;20033;-33
2022/05/18 05:33:13;;;;;;;6.60;3.10;;;;;;;23.46;40.19;97078.22;5011949;28;20036;-33
2022/05/18 05:35:42;;;;;;;4.43;2.88;;;;;;;23.49;40.33;97074.44;5012192;28;20026;-33
2022/05/18 05:38:11;;;;;;;4.93;2.80;;;;;;;23.34;40.77;97081.41;5011924;28;20034;-32
2022/05/18 05:40:37;;;;;;;5.90;3.05;;;;;;;23.48;40.02;97083.25;5043888;28;20409;-33
2022/05/18 05:43:07;;;;;;;4.30;2.60;;;;;;;23.49;40.08;97082.00;5011541;28;20080;-34
2022/05/18 05:45:33;;;;;;;5.95;2.83;;;;;;;23.46;40.28;97086.50;5012111;28;20729;-33
2022/05/18 05:47:58;;;;;;;4.63;2.97;;;;;;;23.47;40.74;97087.28;5043651;28;20068;-32
2022/05/18 05:50:25;;;;;;;5.68;3.15;;;;;;;23.52;40.39;97084.53;5011720;28;20052;-33
2022/05/18 05:52:51;;;;;;;6.10;3.47;;;;;;;23.48;40.23;97086.78;5011567;28;20048;-33
2022/05/18 05:55:17;;;;;;;7.03;2.90;;;;;;;23.50;40.23;97089.03;5011354;28;20453;-33
2022/05/18 05:57:42;;;;;;;5.78;3.08;;;;;;;23.51;40.45;97090.56;5010631;28;20045;-33
2022/05/18 06:00:08;;;;;;;7.65;3.88;;;;;;;23.50;40.32;97091.78;5011818;28;20033;-32
2022/05/18 06:02:33;;;;;;;5.90;3.28;;;;;;;23.37;41.47;97097.78;5011913;28;20026;-33
2022/05/18 06:04:59;;;;;;;6.80;3.08;;;;;;;23.49;40.58;97099.34;5011831;28;20766;-33
2022/05/18 06:07:24;;;;;;;6.93;3.15;;;;;;;23.47;40.40;97093.56;5009683;28;20455;-33
2022/05/18 06:09:50;;;;;;;4.97;3.30;;;;;;;23.44;40.73;97096.56;5011812;28;20026;-33
2022/05/18 06:12:15;;;;;;;5.18;3.08;;;;;;;23.51;40.72;97101.66;5011788;28;20029;-33
2022/05/18 06:14:44;;;;;;;10.90;3.30;;;;;;;23.51;40.48;97104.41;5011585;28;20107;-36
2022/05/18 06:17:10;;;;;;;10.55;3.60;;;;;;;23.52;40.36;97109.47;5011606;28;20464;-33
2022/05/18 06:19:35;;;;;;;8.20;3.42;;;;;;;23.51;40.50;97107.19;5011356;28;20033;-33
2022/05/18 06:22:03;;;;;;;10.82;3.55;;;;;;;23.51;40.91;97116.25;5011425;28;20018;-33
2022/05/18 06:24:28;;;;;;;12.23;3.58;;;;;;;23.43;42.40;97114.41;5011488;28;20034;-33
2022/05/18 06:27:00;;;;;;;8.45;3.33;;;;;;;23.46;40.68;97124.50;5011399;28;20452;-35
2022/05/18 06:29:26;;;;;;;9.23;3.67;;;;;;;23.51;40.68;97118.25;5011669;28;20041;-32
2022/05/18 06:31:52;;;;;;;8.05;3.47;;;;;;;23.46;40.90;97124.50;5011263;28;20091;-32
2022/05/18 06:34:21;;;;;;;8.48;3.15;;;;;;;23.43;41.67;97128.25;5011515;28;20251;-33
2022/05/18 06:36:47;;;;;;;8.13;3.30;;;;;;;23.41;41.77;97128.00;5011576;28;20661;-32
2022/05/18 06:39:12;;;;;;;7.32;3.28;;;;;;;23.47;40.96;97128.81;5011448;28;20033;-33
2022/05/18 06:41:37;;;;;;;7.97;3.10;;;;;;;23.49;40.97;97132.56;5011438;28;20041;-33
2022/05/18 06:44:04;;;;;;;8.20;3.65;;;;;;;23.50;40.71;97127.78;5010934;28;20033;-33
2022/05/18 06:46:33;;;;;;;12.32;3.40;;;;;;;23.46;41.16;97128.03;5011414;28;20033;-32
2022/05/18 06:48:59;;;;;;;5.82;3.03;;;;;;;23.48;41.19;97131.06;5011462;28;20160;-33
2022/05/18 06:51:28;;;;;;;7.05;3.33;;;;;;;23.48;41.20;97125.53;5026452;28;20104;-32
2022/05/18 06:53:55;;;;;;;8.75;3.63;;;;;;;23.41;42.09;97130.75;5011334;28;20030;-33
2022/05/18 06:56:23;;;;;;;5.88;3.00;;;;;;;23.47;40.96;97135.09;5015298;28;20103;-33
2022/05/18 06:58:50;;;;;;;8.55;3.40;;;;;;;23.53;40.61;97132.38;5015091;28;20104;-32
2022/05/18 07:01:17;;;;;;;5.70;3.35;;;;;;;23.49;40.75;97142.91;5014782;28;20033;-33
2022/05/18 07:03:44;;;;;;;5.20;2.75;;;;;;;23.49;41.21;97142.91;5014584;28;20030;-35
2022/05/18 07:06:10;;;;;;;7.03;3.35;;;;;;;23.45;40.92;97148.66;5016723;28;20052;-33
2022/05/18 07:08:37;;;;;;;5.22;2.88;;;;;;;23.46;41.69;97147.41;5016764;28;20053;-33
2022/05/18 07:11:03;;;;;;;7.38;3.08;;;;;;;23.43;41.26;97155.94;5016639;28;20084;-35
2022/05/18 07:13:32;;;;;;;6.15;2.63;;;;;;;23.54;40.81;97148.47;5016078;28;20042;-33
2022/05/18 07:15:58;;;;;;;9.98;3.83;;;;;;;23.50;41.66;97158.25;5015530;28;20057;-35
2022/05/18 07:18:31;;;;;;;7.60;3.20;;;;;;;23.49;41.77;97153.97;5016767;28;20057;-36
2022/05/18 07:20:57;;;;;;;7.67;3.10;;;;;;;23.54;41.72;97156.03;5016561;28;20044;-36
2022/05/18 07:23:25;;;;;;;8.60;3.35;;;;;;;23.56;41.57;97154.28;5016269;28;20729;-33
2022/05/18 07:25:54;;;;;;;5.25;3.17;;;;;;;23.56;41.14;97159.81;5016521;28;20117;-32
2022/05/18 07:28:20;;;;;;;5.60;3.20;;;;;;;23.50;41.07;97163.78;5016451;28;20435;-32
2022/05/18 07:30:46;;;;;;;6.18;3.35;;;;;;;23.54;41.06;97158.81;5016210;28;20061;-32
2022/05/18 07:33:14;;;;;;;5.82;3.30;;;;;;;23.61;41.12;97164.63;5016697;28;20060;-32
2022/05/18 07:35:40;;;;;;;4.63;2.72;;;;;;;23.62;40.96;97168.16;5016253;28;20108;-32
2022/05/18 07:38:05;;;;;;;7.15;3.00;;;;;;;23.53;40.68;97173.91;5016356;28;20145;-33
2022/05/18 07:40:33;;;;;;;6.22;2.65;;;;;;;23.60;40.81;97165.13;5016173;28;20379;-32
2022/05/18 07:42:59;;;;;;;5.65;3.15;;;;;;;23.67;40.87;97167.44;5016459;28;20364;-34
2022/05/18 07:45:25;;;;;;;5.00;3.08;;;;;;;23.60;40.97;97170.69;5015976;28;20026;-34
2022/05/18 07:47:54;;;;;;;5.80;2.60;;;;;;;23.58;41.05;97170.41;5016139;28;20487;-33
2022/05/18 07:50:21;;;;;;;5.82;3.13;;;;;;;23.50;41.21;97183.94;5016369;28;20033;-32
2022/05/18 07:52:46;;;;;;;6.50;2.83;;;;;;;23.61;40.58;97172.94;5016225;28;20522;-32
2022/05/18 07:55:13;;;;;;;4.85;2.70;;;;;;;23.62;40.87;97177.22;5015986;28;20057;-33
2022/05/18 07:57:39;;;;;;;6.53;3.20;;;;;;;23.52;41.02;97180.69;5015645;28;20053;-33
2022/05/18 08:00:06;;;;;;;6.15;2.65;;;;;;;23.61;40.47;97172.94;5015770;28;20038;-32
2022/05/18 08:02:33;;;;;;;4.25;2.75;;;;;;;23.65;40.69;97178.25;5015862;28;20026;-32
2022/05/18 08:04:59;;;;;;;5.53;2.80;;;;;;;23.60;40.94;97176.97;5015207;28;20024;-35
2022/05/18 08:07:25;;;;;;;15.23;3.28;;;;;;;22.90;42.99;97188.53;5015063;28;20021;-33
2022/05/18 08:15:20;;;;;;;9.02;3.65;;;;;;;23.37;41.53;97185.63;5015345;28;20032;-33
2022/05/18 08:17:45;;;;;;;9.85;2.90;;;;;;;23.45;41.37;97187.41;5014423;28;20104;-34
2022/05/18 08:20:14;;;;;;;11.50;3.10;;;;;;;23.56;40.85;97189.53;5014716;28;20102;-32
2022/05/18 08:22:41;;;;;;;11.85;3.33;;;;;;;23.58;40.74;97189.78;5015344;28;20036;-33
2022/05/18 08:25:08;;;;;;;6.07;2.80;;;;;;;23.51;41.11;97199.31;5015474;28;20022;-32
2022/05/18 08:27:34;;;;;;;7.05;2.70;;;;;;;23.50;40.55;97186.72;5015344;28;20453;-34
2022/05/18 08:30:07;;;;;;;17.13;3.55;;;;;;;23.54;40.73;97189.25;5015410;28;20034;-33
2022/05/18 08:32:33;;;;;;;7.35;2.70;;;;;;;23.54;40.34;97192.03;5015396;28;20439;-33
2022/05/18 08:34:58;;;;;;;10.25;3.40;;;;;;;23.52;40.46;97197.28;5015320;28;20021;-34
2022/05/18 08:37:24;;;;;;;6.20;2.63;;;;;;;23.50;40.70;97191.47;5015238;28;20033;-32
2022/05/18 08:39:51;;;;;;;6.72;2.55;;;;;;;23.46;40.63;97190.94;5015108;28;20062;-33
2022/05/18 08:42:19;;;;;;;13.88;3.50;;;;;;;23.52;40.21;97191.75;5015256;28;20431;-34
2022/05/18 08:44:45;;;;;;;7.88;2.95;;;;;;;23.54;40.61;97203.09;5014992;28;20049;-33
2022/05/18 08:47:27;;;;;;;5.95;2.38;;;;;;;23.52;40.53;97198.06;5015095;28;20025;-33
2022/05/18 08:49:58;;;;;;;8.07;3.47;;;;;;;23.51;40.38;97202.06;5015024;28;20030;-33
2022/05/18 08:53:02;;;;;;;4.93;2.17;;;;;;;23.44;40.34;97191.44;5014869;28;20030;-33
2022/05/18 08:55:42;;;;;;;4.10;2.55;;;;;;;23.49;40.39;97198.28;5015075;28;20121;-33
2022/05/18 08:58:18;;;;;;;8.27;2.60;;;;;;;23.48;40.18;97196.75;5015034;28;20400;-33
2022/05/18 09:00:52;;;;;;;7.53;2.45;;;;;;;23.46;40.43;97193.72;5014737;28;20112;-34
2022/05/18 09:03:25;;;;;;;4.22;2.22;;;;;;;23.45;40.21;97194.97;5013989;28;20117;-33
2022/05/18 09:05:59;;;;;;;4.70;2.15;;;;;;;23.42;40.70;97198.72;5012631;28;20400;-33
2022/05/18 09:08:29;;;;;;;4.95;2.30;;;;;;;23.46;40.29;97196.50;5011611;28;20026;-33
2022/05/18 09:11:16;;;;;;;6.18;2.20;;;;;;;23.48;40.26;97196.75;5014662;28;20028;-33
2022/05/18 09:13:41;;;;;;;5.70;2.28;;;;;;;23.47;40.11;97203.53;5014419;28;20056;-33
2022/05/18 09:16:26;;;;;;;5.47;2.00;;;;;;;23.50;39.90;97199.75;5014203;28;20025;-34
2022/05/18 09:19:04;;;;;;;4.47;2.00;;;;;;;23.52;39.76;97197.28;5014549;28;20026;-34
2022/05/18 09:22:14;;;;;;;4.90;1.80;;;;;;;23.51;39.82;97201.31;5014533;28;20061;-33
2022/05/18 09:24:49;;;;;;;6.03;2.20;;;;;;;23.47;39.75;97195.25;5014426;28;20076;-34
2022/05/18 09:27:53;;;;;;;3.40;2.25;;;;;;;23.45;39.93;97192.97;5014480;28;20417;-33
2022/05/18 09:30:37;;;;;;;3.90;2.47;;;;;;;23.48;39.93;97205.06;5014317;28;20017;-33
2022/05/18 09:33:18;;;;;;;4.55;2.00;;;;;;;23.51;39.85;97193.00;5014105;28;20072;-32
2022/05/18 09:35:52;;;;;;;3.58;1.90;;;;;;;23.55;39.74;97199.84;5014111;28;20029;-32
2022/05/18 09:38:50;;;;;;;4.15;2.10;;;;;;;23.53;39.59;97201.59;5014137;28;20034;-32
2022/05/18 09:41:19;;;;;;;3.83;1.73;;;;;;;23.52;39.84;97205.59;5006103;28;20096;-32
2022/05/18 09:43:56;;;;;;;5.13;2.47;;;;;;;23.57;39.51;97204.88;5013783;28;20424;-33
2022/05/18 09:46:26;;;;;;;5.88;2.42;;;;;;;23.54;39.53;97194.78;5013879;28;20026;-32
2022/05/18 09:48:57;;;;;;;4.03;2.15;;;;;;;23.55;39.31;97196.31;5014096;28;20484;-33
2022/05/18 09:51:24;;;;;;;4.63;2.55;;;;;;;23.49;39.69;97198.28;5013990;28;20037;-32
2022/05/18 09:53:50;;;;;;;4.72;2.20;;;;;;;23.57;39.15;97205.66;5013967;28;20019;-33
2022/05/18 09:56:29;;;;;;;8.48;2.80;;;;;;;23.56;39.09;97200.59;5013868;28;20026;-33
2022/05/18 09:58:59;;;;;;;5.50;2.65;;;;;;;23.60;39.01;97195.59;5013842;28;20021;-33
2022/05/18 10:10:13;;;;;;;3.60;2.08;;;;;;;23.59;39.18;97203.16;5012716;28;20404;-33
2022/05/18 10:12:58;;;;;;;5.93;2.17;;;;;;;23.62;39.35;97196.59;4999062;28;20516;-34
2022/05/18 10:15:41;;;;;;;5.15;1.60;;;;;;;23.66;39.29;97196.38;5011549;28;20030;-33
2022/05/18 10:18:33;;;;;;;5.18;2.03;;;;;;;23.67;39.50;97197.13;5011635;28;20469;-34
2022/05/18 10:21:26;;;;;;;5.68;2.20;;;;;;;23.70;39.63;97190.63;5011519;28;20053;-34
2022/05/18 10:23:51;;;;;;;;;;;;;;;23.71;39.47;97194.91;5011572;28;20595;-34
2022/05/18 10:26:25;;;;;;;6.63;2.00;;;;;;;23.68;39.94;97193.88;5011565;28;19955;-33
2022/05/18 10:28:58;;;;;;;3.33;2.22;;;;;;;23.78;40.00;97197.94;5013575;28;20321;-33
2022/05/18 10:31:33;;;;;;;4.40;2.10;;;;;;;23.79;39.41;97204.25;5030810;28;20036;-33
2022/05/18 10:34:28;;;;;;;4.82;2.17;;;;;;;23.79;39.85;97196.69;5015146;28;20068;-33
2022/05/18 10:36:56;;;;;;;5.82;2.15;;;;;;;23.76;39.91;97188.63;5015525;28;20030;-32
2022/05/18 10:39:30;;;;;;;3.03;2.20;;;;;;;23.81;39.47;97180.34;5015504;28;20067;-33
2022/05/18 10:41:56;;;;;;;4.30;1.98;;;;;;;23.82;39.56;97190.16;5015490;28;20080;-33
2022/05/18 10:44:27;;;;;;;2.95;1.67;;;;;;;23.82;39.59;97192.94;5030357;28;20030;-33
2022/05/18 10:47:13;;;;;;;5.00;1.80;;;;;;;23.84;39.63;97186.91;5015147;28;20416;-33
2022/05/18 10:49:39;;;;;;;4.63;1.90;;;;;;;23.75;39.61;97185.09;5015442;28;20454;-34
2022/05/18 10:52:15;;;;;;;4.40;1.90;;;;;;;23.84;39.39;97184.13;5016839;28;20022;-33
2022/05/18 10:54:51;;;;;;;3.10;1.80;;;;;;;23.83;39.32;97186.16;5049077;28;20024;-33
2022/05/18 10:57:19;;;;;;;5.25;2.03;;;;;;;23.91;39.10;97184.41;5017420;28;20367;-32
2022/05/18 11:00:06;;;;;;;3.45;2.20;;;;;;;23.88;38.77;97190.94;5017425;28;20021;-35
2022/05/18 11:03:02;;;;;;;5.95;2.10;;;;;;;23.88;39.13;97196.47;5016931;28;20373;-32
2022/05/18 11:05:42;;;;;;;4.93;1.70;;;;;;;23.94;38.92;97188.97;5017052;28;20025;-33
2022/05/18 11:08:15;;;;;;;4.90;1.90;;;;;;;23.94;39.06;97188.22;5016908;28;20101;-34
2022/05/18 11:10:49;;;;;;;2.78;1.70;;;;;;;23.96;39.00;97189.22;5016853;28;20025;-32
2022/05/18 11:13:24;;;;;;;4.45;1.90;;;;;;;23.96;39.25;97186.47;5016575;28;20049;-32
2022/05/18 11:16:21;;;;;;;2.28;1.65;;;;;;;24.00;39.25;97186.19;5016814;28;20099;-33
2022/05/18 11:19:16;;;;;;;5.40;1.40;;;;;;;23.95;38.97;97189.72;5016662;28;20046;-33
2022/05/18 11:22:09;;;;;;;3.95;1.75;;;;;;;23.94;39.18;97186.19;5016553;28;20435;-34
2022/05/18 11:24:46;;;;;;;4.43;1.63;;;;;;;24.00;38.95;97183.44;5016584;28;20369;-32
2022/05/18 11:27:14;;;;;;;3.20;1.60;;;;;;;24.03;38.74;97187.97;5016746;28;20108;-32
2022/05/18 11:29:53;;;;;;;4.85;1.50;;;;;;;24.04;38.72;97185.97;5016555;28;20550;-33
2022/05/18 11:32:42;;;;;;;2.38;1.60;;;;;;;24.02;38.35;97191.25;5016460;28;20116;-33
2022/05/18 11:35:26;;;;;;;4.25;1.63;;;;;;;24.10;38.09;97184.75;5016375;28;20030;-35
2022/05/18 11:37:57;;;;;;;3.72;1.90;;;;;;;24.09;38.19;97174.91;5016432;28;20030;-33
2022/05/18 11:40:34;;;;;;;3.63;1.52;;;;;;;24.11;38.27;97185.50;5015730;28;20152;-32
2022/05/18 11:43:25;;;;;;;4.28;1.77;;;;;;;24.11;37.91;97172.38;5016293;28;20036;-32
2022/05/18 11:46:10;;;;;;;2.53;1.70;;;;;;;24.19;37.74;97178.22;5016206;28;20064;-32
2022/05/18 11:49:00;;;;;;;4.25;1.52;;;;;;;24.16;37.88;97181.97;5016540;28;20022;-34
2022/05/18 11:51:50;;;;;;;4.50;1.80;;;;;;;24.17;37.91;97180.72;5016184;28;20025;-33
2022/05/18 11:54:25;;;;;;;3.03;1.77;;;;;;;24.22;37.77;97182.78;5016159;28;20539;-32
2022/05/18 11:57:03;;;;;;;4.60;1.60;;;;;;;24.24;37.93;97171.94;5015865;28;20031;-33
2022/05/18 11:59:52;;;;;;;4.03;1.83;;;;;;;24.16;38.24;97165.34;5016207;28;20029;-32
2022/05/18 12:02:36;;;;;;;5.68;2.17;;;;;;;24.22;38.24;97171.69;5016168;28;20022;-32
2022/05/18 12:05:20;;;;;;;8.25;1.73;;;;;;;24.25;37.99;97171.44;5015693;28;20025;-33
2022/05/18 12:07:48;;;;;;;2.03;1.58;;;;;;;24.18;38.30;97169.16;5015639;28;20018;-32